Cardigan, Canada
Current Conditions -  °F | °C
As of 10:00 PM on Monday 24 Nov 2014 (Local Time) from CYYG Reporting Station
Overcast Overcast  
Wind Chill: 57°   Ceiling: 1500
Heat Index: 57°   Visibility: 15mi
Dew Point: 54°   Wind: 26mph
Humidity: 88%   Direction: 180°S
Pressure: 29.65"   Gusts: 37mph
Location:  46.23°N, 62.62°W
Report Text: CYYG 250200Z 18023G32KT 15SM FEW006 OVC015 14/12 A2965 RMK SF1NS7 SLP043 DENSITY ALT 300FT
Loading
Personal Weather Stations






























Interactive Weather Map New forecast layout! Learn more

10-Day Weather Forecast

Advertisements
Track Severe Weather on mobile